Terminal Aerodrome Forecast
Issued by NWS

Home | Current Version | Previous Version | Text Only | Print | Product List | Glossary Off
Versions: 1 2 3 4 5 6 7 8 9 10 11 12 13 14 15 16 17 18 19 20

226
FTUS43 KABR 041723
TAFATY
TAF
KATY 041723Z 0418/0518 35015KT P6SM SKC
     FM042000 VRB05KT P6SM OVC025
     FM051600 21010KT 5SM -SN OVC015=

USA.gov is the U.S. government's official web portal to all federal, state and local government web resources and services.